sensor_id;sensor_type;location;lat;lon;timestamp;P1;durP1;ratioP1;P2;durP2;ratioP2
25187;SDS011;13141;50.414;8.050;2023-06-26T00:01:52;0.30;;;0.30;;
25187;SDS011;13141;50.414;8.050;2023-06-26T00:04:18;0.15;;;0.15;;
25187;SDS011;13141;50.414;8.050;2023-06-26T00:06:43;0.17;;;0.17;;
25187;SDS011;13141;50.414;8.050;2023-06-26T00:09:09;0.15;;;0.15;;
25187;SDS011;13141;50.414;8.050;2023-06-26T00:11:35;0.20;;;0.20;;
25187;SDS011;13141;50.414;8.050;2023-06-26T00:14:01;0.10;;;0.10;;
25187;SDS011;13141;50.414;8.050;2023-06-26T00:16:28;0.20;;;0.20;;
25187;SDS011;13141;50.414;8.050;2023-06-26T00:18:53;0.20;;;0.20;;
25187;SDS011;13141;50.414;8.050;2023-06-26T00:21:19;0.20;;;0.20;;
25187;SDS011;13141;50.414;8.050;2023-06-26T00:23:45;0.10;;;0.10;;
25187;SDS011;13141;50.414;8.050;2023-06-26T00:26:10;0.20;;;0.20;;
25187;SDS011;13141;50.414;8.050;2023-06-26T00:28:36;0.20;;;0.20;;
25187;SDS011;13141;50.414;8.050;2023-06-26T00:31:02;0.15;;;0.15;;
25187;SDS011;13141;50.414;8.050;2023-06-26T00:33:29;0.10;;;0.10;;
25187;SDS011;13141;50.414;8.050;2023-06-26T00:35:54;0.17;;;0.17;;
25187;SDS011;13141;50.414;8.050;2023-06-26T00:38:20;0.10;;;0.10;;
25187;SDS011;13141;50.414;8.050;2023-06-26T00:40:46;0.20;;;0.20;;
25187;SDS011;13141;50.414;8.050;2023-06-26T00:43:11;0.20;;;0.20;;
25187;SDS011;13141;50.414;8.050;2023-06-26T00:45:37;0.10;;;0.10;;
25187;SDS011;13141;50.414;8.050;2023-06-26T00:48:03;0.10;;;0.10;;
25187;SDS011;13141;50.414;8.050;2023-06-26T00:50:31;0.20;;;0.20;;
25187;SDS011;13141;50.414;8.050;2023-06-26T00:52:58;0.10;;;0.10;;
25187;SDS011;13141;50.414;8.050;2023-06-26T00:55:24;0.15;;;0.15;;
25187;SDS011;13141;50.414;8.050;2023-06-26T00:57:49;0.13;;;0.13;;
25187;SDS011;13141;50.414;8.050;2023-06-26T01:00:15;0.20;;;0.20;;
25187;SDS011;13141;50.414;8.050;2023-06-26T01:02:41;0.10;;;0.10;;
25187;SDS011;13141;50.414;8.050;2023-06-26T01:05:07;0.20;;;0.20;;
25187;SDS011;13141;50.414;8.050;2023-06-26T01:07:35;0.17;;;0.17;;
25187;SDS011;13141;50.414;8.050;2023-06-26T01:10:01;0.20;;;0.20;;
25187;SDS011;13141;50.414;8.050;2023-06-26T01:12:28;0.20;;;0.20;;
25187;SDS011;13141;50.414;8.050;2023-06-26T01:14:54;0.20;;;0.20;;
25187;SDS011;13141;50.414;8.050;2023-06-26T01:17:19;0.10;;;0.10;;
25187;SDS011;13141;50.414;8.050;2023-06-26T01:19:46;0.10;;;0.10;;
25187;SDS011;13141;50.414;8.050;2023-06-26T01:22:16;0.20;;;0.20;;
25187;SDS011;13141;50.414;8.050;2023-06-26T01:24:50;0.20;;;0.20;;
25187;SDS011;13141;50.414;8.050;2023-06-26T01:27:28;0.10;;;0.10;;
25187;SDS011;13141;50.414;8.050;2023-06-26T01:29:57;0.10;;;0.10;;
25187;SDS011;13141;50.414;8.050;2023-06-26T01:32:25;0.20;;;0.20;;
25187;SDS011;13141;50.414;8.050;2023-06-26T01:34:51;0.20;;;0.20;;
25187;SDS011;13141;50.414;8.050;2023-06-26T01:37:17;0.10;;;0.10;;
25187;SDS011;13141;50.414;8.050;2023-06-26T01:39:43;0.17;;;0.17;;
25187;SDS011;13141;50.414;8.050;2023-06-26T01:42:08;0.10;;;0.10;;
25187;SDS011;13141;50.414;8.050;2023-06-26T01:44:37;0.13;;;0.13;;
25187;SDS011;13141;50.414;8.050;2023-06-26T01:47:08;0.10;;;0.10;;
25187;SDS011;13141;50.414;8.050;2023-06-26T01:49:42;0.15;;;0.15;;
25187;SDS011;13141;50.414;8.050;2023-06-26T01:52:13;0.20;;;0.20;;
25187;SDS011;13141;50.414;8.050;2023-06-26T01:54:46;0.15;;;0.15;;
25187;SDS011;13141;50.414;8.050;2023-06-26T01:57:20;0.20;;;0.20;;
25187;SDS011;13141;50.414;8.050;2023-06-26T01:59:48;0.10;;;0.10;;
25187;SDS011;13141;50.414;8.050;2023-06-26T02:02:15;0.20;;;0.20;;
25187;SDS011;13141;50.414;8.050;2023-06-26T02:04:42;0.10;;;0.10;;
25187;SDS011;13141;50.414;8.050;2023-06-26T02:07:08;0.10;;;0.10;;
25187;SDS011;13141;50.414;8.050;2023-06-26T02:09:34;0.15;;;0.15;;
25187;SDS011;13141;50.414;8.050;2023-06-26T02:11:59;0.20;;;0.20;;
25187;SDS011;13141;50.414;8.050;2023-06-26T02:14:28;0.10;;;0.10;;
25187;SDS011;13141;50.414;8.050;2023-06-26T02:16:55;0.20;;;0.20;;
25187;SDS011;13141;50.414;8.050;2023-06-26T02:19:21;0.20;;;0.20;;
25187;SDS011;13141;50.414;8.050;2023-06-26T02:21:46;0.20;;;0.20;;
25187;SDS011;13141;50.414;8.050;2023-06-26T02:24:12;0.10;;;0.10;;
25187;SDS011;13141;50.414;8.050;2023-06-26T02:26:38;0.20;;;0.20;;
25187;SDS011;13141;50.414;8.050;2023-06-26T02:29:04;0.20;;;0.20;;
25187;SDS011;13141;50.414;8.050;2023-06-26T02:31:29;0.20;;;0.20;;
25187;SDS011;13141;50.414;8.050;2023-06-26T02:33:56;0.10;;;0.10;;
25187;SDS011;13141;50.414;8.050;2023-06-26T02:36:22;0.10;;;0.10;;
25187;SDS011;13141;50.414;8.050;2023-06-26T02:38:48;0.20;;;0.20;;
25187;SDS011;13141;50.414;8.050;2023-06-26T02:41:13;0.10;;;0.10;;
25187;SDS011;13141;50.414;8.050;2023-06-26T02:43:39;0.10;;;0.10;;
25187;SDS011;13141;50.414;8.050;2023-06-26T02:46:07;0.10;;;0.10;;
25187;SDS011;13141;50.414;8.050;2023-06-26T02:48:33;0.10;;;0.10;;
25187;SDS011;13141;50.414;8.050;2023-06-26T02:51:00;0.17;;;0.17;;
25187;SDS011;13141;50.414;8.050;2023-06-26T02:53:26;0.20;;;0.20;;
25187;SDS011;13141;50.414;8.050;2023-06-26T02:55:52;0.20;;;0.20;;
25187;SDS011;13141;50.414;8.050;2023-06-26T02:58:17;0.10;;;0.10;;
25187;SDS011;13141;50.414;8.050;2023-06-26T03:00:44;0.15;;;0.15;;
25187;SDS011;13141;50.414;8.050;2023-06-26T03:03:09;0.10;;;0.10;;
25187;SDS011;13141;50.414;8.050;2023-06-26T03:05:35;0.20;;;0.20;;
25187;SDS011;13141;50.414;8.050;2023-06-26T03:08:03;0.20;;;0.20;;
25187;SDS011;13141;50.414;8.050;2023-06-26T03:10:29;0.10;;;0.10;;
25187;SDS011;13141;50.414;8.050;2023-06-26T03:12:55;0.20;;;0.20;;
25187;SDS011;13141;50.414;8.050;2023-06-26T03:15:20;0.10;;;0.10;;
25187;SDS011;13141;50.414;8.050;2023-06-26T03:17:46;0.10;;;0.10;;
25187;SDS011;13141;50.414;8.050;2023-06-26T03:20:12;0.20;;;0.20;;
25187;SDS011;13141;50.414;8.050;2023-06-26T03:22:37;0.10;;;0.10;;
25187;SDS011;13141;50.414;8.050;2023-06-26T03:25:05;0.20;;;0.20;;
25187;SDS011;13141;50.414;8.050;2023-06-26T03:27:31;0.20;;;0.20;;
25187;SDS011;13141;50.414;8.050;2023-06-26T03:29:56;0.13;;;0.13;;
25187;SDS011;13141;50.414;8.050;2023-06-26T03:32:22;0.20;;;0.20;;
25187;SDS011;13141;50.414;8.050;2023-06-26T03:34:48;0.10;;;0.10;;
25187;SDS011;13141;50.414;8.050;2023-06-26T03:37:13;0.10;;;0.10;;
25187;SDS011;13141;50.414;8.050;2023-06-26T03:39:41;0.10;;;0.10;;
25187;SDS011;13141;50.414;8.050;2023-06-26T03:42:08;0.20;;;0.20;;
25187;SDS011;13141;50.414;8.050;2023-06-26T03:44:34;0.10;;;0.10;;
25187;SDS011;13141;50.414;8.050;2023-06-26T03:46:59;0.10;;;0.10;;
25187;SDS011;13141;50.414;8.050;2023-06-26T03:49:25;0.20;;;0.20;;
25187;SDS011;13141;50.414;8.050;2023-06-26T03:51:50;0.20;;;0.20;;
25187;SDS011;13141;50.414;8.050;2023-06-26T03:54:16;0.10;;;0.10;;
25187;SDS011;13141;50.414;8.050;2023-06-26T03:56:42;0.10;;;0.10;;
25187;SDS011;13141;50.414;8.050;2023-06-26T03:59:09;0.10;;;0.10;;
25187;SDS011;13141;50.414;8.050;2023-06-26T04:01:35;0.10;;;0.10;;
25187;SDS011;13141;50.414;8.050;2023-06-26T04:04:01;0.20;;;0.20;;
25187;SDS011;13141;50.414;8.050;2023-06-26T04:06:27;0.20;;;0.20;;
25187;SDS011;13141;50.414;8.050;2023-06-26T04:08:52;0.20;;;0.20;;
25187;SDS011;13141;50.414;8.050;2023-06-26T04:11:18;0.13;;;0.13;;
25187;SDS011;13141;50.414;8.050;2023-06-26T04:13:44;0.13;;;0.13;;
25187;SDS011;13141;50.414;8.050;2023-06-26T04:16:11;0.20;;;0.20;;
25187;SDS011;13141;50.414;8.050;2023-06-26T04:18:36;0.10;;;0.10;;
25187;SDS011;13141;50.414;8.050;2023-06-26T04:21:06;0.20;;;0.20;;
25187;SDS011;13141;50.414;8.050;2023-06-26T04:23:33;0.20;;;0.20;;
25187;SDS011;13141;50.414;8.050;2023-06-26T04:25:59;0.20;;;0.20;;
25187;SDS011;13141;50.414;8.050;2023-06-26T04:28:25;0.15;;;0.15;;
25187;SDS011;13141;50.414;8.050;2023-06-26T04:30:50;0.10;;;0.10;;
25187;SDS011;13141;50.414;8.050;2023-06-26T04:33:18;0.20;;;0.20;;
25187;SDS011;13141;50.414;8.050;2023-06-26T04:35:43;0.10;;;0.10;;
25187;SDS011;13141;50.414;8.050;2023-06-26T04:38:09;0.20;;;0.20;;
25187;SDS011;13141;50.414;8.050;2023-06-26T04:40:35;0.10;;;0.10;;
25187;SDS011;13141;50.414;8.050;2023-06-26T04:43:00;0.20;;;0.20;;
25187;SDS011;13141;50.414;8.050;2023-06-26T04:45:26;0.15;;;0.15;;
25187;SDS011;13141;50.414;8.050;2023-06-26T04:47:52;0.10;;;0.10;;
25187;SDS011;13141;50.414;8.050;2023-06-26T04:50:19;0.20;;;0.20;;
25187;SDS011;13141;50.414;8.050;2023-06-26T04:52:45;0.10;;;0.10;;
25187;SDS011;13141;50.414;8.050;2023-06-26T04:55:11;0.10;;;0.10;;
25187;SDS011;13141;50.414;8.050;2023-06-26T04:57:36;0.10;;;0.10;;
25187;SDS011;13141;50.414;8.050;2023-06-26T05:00:02;0.13;;;0.13;;
25187;SDS011;13141;50.414;8.050;2023-06-26T05:02:28;0.20;;;0.20;;
25187;SDS011;13141;50.414;8.050;2023-06-26T05:04:54;0.10;;;0.10;;
25187;SDS011;13141;50.414;8.050;2023-06-26T05:07:21;0.20;;;0.20;;
25187;SDS011;13141;50.414;8.050;2023-06-26T05:09:47;0.10;;;0.10;;
25187;SDS011;13141;50.414;8.050;2023-06-26T05:12:13;0.13;;;0.13;;
25187;SDS011;13141;50.414;8.050;2023-06-26T05:14:44;0.10;;;0.10;;
25187;SDS011;13141;50.414;8.050;2023-06-26T05:17:13;0.10;;;0.10;;
25187;SDS011;13141;50.414;8.050;2023-06-26T05:19:39;0.20;;;0.20;;
25187;SDS011;13141;50.414;8.050;2023-06-26T05:22:06;0.10;;;0.10;;
25187;SDS011;13141;50.414;8.050;2023-06-26T05:24:39;0.10;;;0.10;;
25187;SDS011;13141;50.414;8.050;2023-06-26T05:27:11;0.10;;;0.10;;
25187;SDS011;13141;50.414;8.050;2023-06-26T05:29:41;0.13;;;0.13;;
25187;SDS011;13141;50.414;8.050;2023-06-26T05:32:08;0.20;;;0.20;;
25187;SDS011;13141;50.414;8.050;2023-06-26T05:34:40;0.10;;;0.10;;
25187;SDS011;13141;50.414;8.050;2023-06-26T05:37:09;0.10;;;0.10;;
25187;SDS011;13141;50.414;8.050;2023-06-26T05:39:45;0.10;;;0.10;;
25187;SDS011;13141;50.414;8.050;2023-06-26T05:42:12;0.20;;;0.20;;
25187;SDS011;13141;50.414;8.050;2023-06-26T05:44:38;0.10;;;0.10;;
25187;SDS011;13141;50.414;8.050;2023-06-26T05:47:04;0.20;;;0.20;;
25187;SDS011;13141;50.414;8.050;2023-06-26T05:49:32;0.10;;;0.10;;
25187;SDS011;13141;50.414;8.050;2023-06-26T05:51:58;0.20;;;0.20;;
25187;SDS011;13141;50.414;8.050;2023-06-26T05:54:27;0.20;;;0.20;;
25187;SDS011;13141;50.414;8.050;2023-06-26T05:56:56;0.10;;;0.10;;
25187;SDS011;13141;50.414;8.050;2023-06-26T05:59:27;0.10;;;0.10;;
25187;SDS011;13141;50.414;8.050;2023-06-26T06:01:55;0.10;;;0.10;;
25187;SDS011;13141;50.414;8.050;2023-06-26T06:04:23;0.20;;;0.20;;
25187;SDS011;13141;50.414;8.050;2023-06-26T06:06:49;0.10;;;0.10;;
25187;SDS011;13141;50.414;8.050;2023-06-26T06:09:18;0.10;;;0.10;;
25187;SDS011;13141;50.414;8.050;2023-06-26T06:11:45;0.10;;;0.10;;
25187;SDS011;13141;50.414;8.050;2023-06-26T06:14:13;0.15;;;0.15;;
25187;SDS011;13141;50.414;8.050;2023-06-26T06:16:46;0.17;;;0.17;;
25187;SDS011;13141;50.414;8.050;2023-06-26T06:19:12;0.20;;;0.20;;
25187;SDS011;13141;50.414;8.050;2023-06-26T06:21:43;0.20;;;0.20;;
25187;SDS011;13141;50.414;8.050;2023-06-26T06:24:11;0.10;;;0.10;;
25187;SDS011;13141;50.414;8.050;2023-06-26T06:26:36;0.20;;;0.20;;
25187;SDS011;13141;50.414;8.050;2023-06-26T06:29:05;0.20;;;0.20;;
25187;SDS011;13141;50.414;8.050;2023-06-26T06:31:35;0.10;;;0.10;;
25187;SDS011;13141;50.414;8.050;2023-06-26T06:34:05;0.20;;;0.20;;
25187;SDS011;13141;50.414;8.050;2023-06-26T06:36:33;0.17;;;0.17;;
25187;SDS011;13141;50.414;8.050;2023-06-26T06:39:01;0.17;;;0.17;;
25187;SDS011;13141;50.414;8.050;2023-06-26T06:41:31;0.10;;;0.10;;
25187;SDS011;13141;50.414;8.050;2023-06-26T06:43:57;0.10;;;0.10;;
25187;SDS011;13141;50.414;8.050;2023-06-26T06:46:23;0.10;;;0.10;;
25187;SDS011;13141;50.414;8.050;2023-06-26T06:48:53;0.20;;;0.20;;
25187;SDS011;13141;50.414;8.050;2023-06-26T06:51:26;0.10;;;0.10;;
25187;SDS011;13141;50.414;8.050;2023-06-26T06:53:52;0.10;;;0.10;;
25187;SDS011;13141;50.414;8.050;2023-06-26T06:56:20;0.10;;;0.10;;
25187;SDS011;13141;50.414;8.050;2023-06-26T06:58:46;0.20;;;0.20;;
25187;SDS011;13141;50.414;8.050;2023-06-26T07:01:11;0.20;;;0.20;;
25187;SDS011;13141;50.414;8.050;2023-06-26T07:03:37;0.20;;;0.20;;
25187;SDS011;13141;50.414;8.050;2023-06-26T07:06:05;0.15;;;0.15;;
25187;SDS011;13141;50.414;8.050;2023-06-26T07:08:31;0.10;;;0.10;;
25187;SDS011;13141;50.414;8.050;2023-06-26T07:10:56;0.20;;;0.20;;
25187;SDS011;13141;50.414;8.050;2023-06-26T07:13:22;0.20;;;0.20;;
25187;SDS011;13141;50.414;8.050;2023-06-26T07:15:48;0.10;;;0.10;;
25187;SDS011;13141;50.414;8.050;2023-06-26T07:18:17;0.20;;;0.20;;
25187;SDS011;13141;50.414;8.050;2023-06-26T07:20:42;0.20;;;0.20;;
25187;SDS011;13141;50.414;8.050;2023-06-26T07:23:10;0.10;;;0.10;;
25187;SDS011;13141;50.414;8.050;2023-06-26T07:25:36;0.20;;;0.20;;
25187;SDS011;13141;50.414;8.050;2023-06-26T07:28:01;0.20;;;0.20;;
25187;SDS011;13141;50.414;8.050;2023-06-26T07:30:27;0.10;;;0.10;;
25187;SDS011;13141;50.414;8.050;2023-06-26T07:32:52;0.10;;;0.10;;
25187;SDS011;13141;50.414;8.050;2023-06-26T07:35:18;0.20;;;0.20;;
25187;SDS011;13141;50.414;8.050;2023-06-26T07:37:44;0.15;;;0.15;;
25187;SDS011;13141;50.414;8.050;2023-06-26T07:40:12;0.10;;;0.10;;
25187;SDS011;13141;50.414;8.050;2023-06-26T07:42:39;0.15;;;0.15;;
25187;SDS011;13141;50.414;8.050;2023-06-26T07:45:05;0.10;;;0.10;;
25187;SDS011;13141;50.414;8.050;2023-06-26T07:47:31;0.20;;;0.20;;
25187;SDS011;13141;50.414;8.050;2023-06-26T07:49:57;0.20;;;0.20;;
25187;SDS011;13141;50.414;8.050;2023-06-26T07:52:22;0.20;;;0.20;;
25187;SDS011;13141;50.414;8.050;2023-06-26T07:54:48;0.20;;;0.20;;
25187;SDS011;13141;50.414;8.050;2023-06-26T07:57:15;0.20;;;0.20;;
25187;SDS011;13141;50.414;8.050;2023-06-26T07:59:43;0.20;;;0.20;;
25187;SDS011;13141;50.414;8.050;2023-06-26T08:02:09;0.20;;;0.20;;
25187;SDS011;13141;50.414;8.050;2023-06-26T08:04:34;0.20;;;0.20;;
25187;SDS011;13141;50.414;8.050;2023-06-26T08:07:00;0.10;;;0.10;;
25187;SDS011;13141;50.414;8.050;2023-06-26T08:09:27;0.20;;;0.20;;
25187;SDS011;13141;50.414;8.050;2023-06-26T08:11:54;0.20;;;0.20;;
25187;SDS011;13141;50.414;8.050;2023-06-26T08:14:22;0.20;;;0.20;;
25187;SDS011;13141;50.414;8.050;2023-06-26T08:16:48;0.10;;;0.10;;
25187;SDS011;13141;50.414;8.050;2023-06-26T08:19:13;0.20;;;0.20;;
25187;SDS011;13141;50.414;8.050;2023-06-26T08:21:41;0.20;;;0.20;;
25187;SDS011;13141;50.414;8.050;2023-06-26T08:24:06;0.10;;;0.10;;
25187;SDS011;13141;50.414;8.050;2023-06-26T08:26:32;0.20;;;0.20;;
25187;SDS011;13141;50.414;8.050;2023-06-26T08:28:58;0.20;;;0.20;;
25187;SDS011;13141;50.414;8.050;2023-06-26T08:31:25;0.20;;;0.20;;
25187;SDS011;13141;50.414;8.050;2023-06-26T08:33:51;0.20;;;0.20;;
25187;SDS011;13141;50.414;8.050;2023-06-26T08:36:17;0.20;;;0.20;;
25187;SDS011;13141;50.414;8.050;2023-06-26T08:38:42;0.20;;;0.20;;
25187;SDS011;13141;50.414;8.050;2023-06-26T08:41:08;0.17;;;0.17;;
25187;SDS011;13141;50.414;8.050;2023-06-26T08:43:34;0.20;;;0.20;;
25187;SDS011;13141;50.414;8.050;2023-06-26T08:46:00;0.20;;;0.20;;
25187;SDS011;13141;50.414;8.050;2023-06-26T08:48:28;0.17;;;0.17;;
25187;SDS011;13141;50.414;8.050;2023-06-26T08:50:56;0.17;;;0.17;;
25187;SDS011;13141;50.414;8.050;2023-06-26T08:53:28;0.20;;;0.20;;
25187;SDS011;13141;50.414;8.050;2023-06-26T08:55:58;0.20;;;0.20;;
25187;SDS011;13141;50.414;8.050;2023-06-26T08:58:25;0.20;;;0.20;;
25187;SDS011;13141;50.414;8.050;2023-06-26T09:00:50;0.20;;;0.20;;
25187;SDS011;13141;50.414;8.050;2023-06-26T09:03:16;0.20;;;0.20;;
25187;SDS011;13141;50.414;8.050;2023-06-26T09:05:43;0.20;;;0.20;;
25187;SDS011;13141;50.414;8.050;2023-06-26T09:08:09;0.20;;;0.20;;
25187;SDS011;13141;50.414;8.050;2023-06-26T09:10:35;0.17;;;0.17;;
25187;SDS011;13141;50.414;8.050;2023-06-26T09:13:02;0.20;;;0.20;;
25187;SDS011;13141;50.414;8.050;2023-06-26T09:15:36;0.20;;;0.20;;
25187;SDS011;13141;50.414;8.050;2023-06-26T09:18:02;0.28;;;0.28;;
25187;SDS011;13141;50.414;8.050;2023-06-26T09:20:30;0.15;;;0.15;;
25187;SDS011;13141;50.414;8.050;2023-06-26T09:22:57;0.30;;;0.30;;
25187;SDS011;13141;50.414;8.050;2023-06-26T09:25:23;0.20;;;0.20;;
25187;SDS011;13141;50.414;8.050;2023-06-26T09:27:49;0.20;;;0.20;;
25187;SDS011;13141;50.414;8.050;2023-06-26T09:30:16;0.30;;;0.30;;
25187;SDS011;13141;50.414;8.050;2023-06-26T09:32:42;0.30;;;0.30;;
25187;SDS011;13141;50.414;8.050;2023-06-26T09:35:08;0.20;;;0.20;;
25187;SDS011;13141;50.414;8.050;2023-06-26T09:37:34;0.17;;;0.17;;
25187;SDS011;13141;50.414;8.050;2023-06-26T09:40:03;0.20;;;0.20;;
25187;SDS011;13141;50.414;8.050;2023-06-26T09:42:29;0.20;;;0.20;;
25187;SDS011;13141;50.414;8.050;2023-06-26T09:44:55;0.28;;;0.28;;
25187;SDS011;13141;50.414;8.050;2023-06-26T09:47:21;0.28;;;0.28;;
25187;SDS011;13141;50.414;8.050;2023-06-26T09:49:47;0.20;;;0.20;;
25187;SDS011;13141;50.414;8.050;2023-06-26T09:52:13;0.20;;;0.20;;
25187;SDS011;13141;50.414;8.050;2023-06-26T09:54:39;0.22;;;0.22;;
25187;SDS011;13141;50.414;8.050;2023-06-26T09:57:09;0.30;;;0.30;;
25187;SDS011;13141;50.414;8.050;2023-06-26T09:59:36;0.20;;;0.20;;
25187;SDS011;13141;50.414;8.050;2023-06-26T10:02:02;0.28;;;0.28;;
25187;SDS011;13141;50.414;8.050;2023-06-26T10:04:27;0.15;;;0.15;;
25187;SDS011;13141;50.414;8.050;2023-06-26T10:06:54;0.20;;;0.20;;
25187;SDS011;13141;50.414;8.050;2023-06-26T10:09:22;0.30;;;0.30;;
25187;SDS011;13141;50.414;8.050;2023-06-26T10:11:49;0.20;;;0.20;;
25187;SDS011;13141;50.414;8.050;2023-06-26T10:14:20;0.20;;;0.20;;
25187;SDS011;13141;50.414;8.050;2023-06-26T10:16:46;0.20;;;0.20;;
25187;SDS011;13141;50.414;8.050;2023-06-26T10:19:14;0.20;;;0.20;;
25187;SDS011;13141;50.414;8.050;2023-06-26T10:21:43;0.30;;;0.30;;
25187;SDS011;13141;50.414;8.050;2023-06-26T10:24:09;0.20;;;0.20;;
25187;SDS011;13141;50.414;8.050;2023-06-26T10:26:41;0.30;;;0.30;;
25187;SDS011;13141;50.414;8.050;2023-06-26T10:29:09;0.28;;;0.28;;
25187;SDS011;13141;50.414;8.050;2023-06-26T10:31:38;0.20;;;0.20;;
25187;SDS011;13141;50.414;8.050;2023-06-26T10:34:08;0.30;;;0.30;;
25187;SDS011;13141;50.414;8.050;2023-06-26T10:36:33;0.30;;;0.30;;
25187;SDS011;13141;50.414;8.050;2023-06-26T10:39:02;0.20;;;0.20;;
25187;SDS011;13141;50.414;8.050;2023-06-26T10:41:29;0.20;;;0.20;;
25187;SDS011;13141;50.414;8.050;2023-06-26T10:44:06;0.20;;;0.20;;
25187;SDS011;13141;50.414;8.050;2023-06-26T10:46:32;0.20;;;0.20;;
25187;SDS011;13141;50.414;8.050;2023-06-26T10:49:00;0.20;;;0.20;;
25187;SDS011;13141;50.414;8.050;2023-06-26T10:51:26;0.32;;;0.32;;
25187;SDS011;13141;50.414;8.050;2023-06-26T10:53:55;0.30;;;0.30;;
25187;SDS011;13141;50.414;8.050;2023-06-26T10:56:24;0.25;;;0.25;;
25187;SDS011;13141;50.414;8.050;2023-06-26T10:59:11;0.20;;;0.20;;
25187;SDS011;13141;50.414;8.050;2023-06-26T11:01:40;0.30;;;0.30;;
25187;SDS011;13141;50.414;8.050;2023-06-26T11:04:07;0.30;;;0.30;;
25187;SDS011;13141;50.414;8.050;2023-06-26T11:06:34;0.20;;;0.20;;
25187;SDS011;13141;50.414;8.050;2023-06-26T11:09:06;0.20;;;0.20;;
25187;SDS011;13141;50.414;8.050;2023-06-26T11:14:23;0.20;;;0.20;;
25187;SDS011;13141;50.414;8.050;2023-06-26T11:16:50;0.20;;;0.20;;
25187;SDS011;13141;50.414;8.050;2023-06-26T11:19:18;0.35;;;0.35;;
25187;SDS011;13141;50.414;8.050;2023-06-26T11:21:44;0.30;;;0.30;;
25187;SDS011;13141;50.414;8.050;2023-06-26T11:24:11;0.20;;;0.20;;
25187;SDS011;13141;50.414;8.050;2023-06-26T11:26:37;0.30;;;0.30;;
25187;SDS011;13141;50.414;8.050;2023-06-26T11:29:03;0.30;;;0.30;;
25187;SDS011;13141;50.414;8.050;2023-06-26T11:31:30;0.28;;;0.28;;
25187;SDS011;13141;50.414;8.050;2023-06-26T11:33:56;0.30;;;0.30;;
25187;SDS011;13141;50.414;8.050;2023-06-26T11:36:24;0.30;;;0.30;;
25187;SDS011;13141;50.414;8.050;2023-06-26T11:38:52;0.20;;;0.20;;
25187;SDS011;13141;50.414;8.050;2023-06-26T11:41:18;0.30;;;0.30;;
25187;SDS011;13141;50.414;8.050;2023-06-26T11:43:44;0.25;;;0.25;;
25187;SDS011;13141;50.414;8.050;2023-06-26T11:46:10;0.28;;;0.28;;
25187;SDS011;13141;50.414;8.050;2023-06-26T11:48:35;0.22;;;0.22;;
25187;SDS011;13141;50.414;8.050;2023-06-26T11:51:03;0.30;;;0.30;;
25187;SDS011;13141;50.414;8.050;2023-06-26T11:53:31;0.30;;;0.30;;
25187;SDS011;13141;50.414;8.050;2023-06-26T11:56:07;0.30;;;0.30;;
25187;SDS011;13141;50.414;8.050;2023-06-26T11:58:33;0.30;;;0.30;;
25187;SDS011;13141;50.414;8.050;2023-06-26T12:00:59;0.22;;;0.22;;
25187;SDS011;13141;50.414;8.050;2023-06-26T12:03:28;0.20;;;0.20;;
25187;SDS011;13141;50.414;8.050;2023-06-26T12:05:54;0.20;;;0.20;;
25187;SDS011;13141;50.414;8.050;2023-06-26T12:08:20;0.20;;;0.20;;
25187;SDS011;13141;50.414;8.050;2023-06-26T12:10:48;0.20;;;0.20;;
25187;SDS011;13141;50.414;8.050;2023-06-26T12:13:14;0.30;;;0.30;;
25187;SDS011;13141;50.414;8.050;2023-06-26T12:15:39;0.30;;;0.30;;
25187;SDS011;13141;50.414;8.050;2023-06-26T12:18:07;0.30;;;0.30;;
25187;SDS011;13141;50.414;8.050;2023-06-26T12:20:33;0.30;;;0.30;;
25187;SDS011;13141;50.414;8.050;2023-06-26T12:23:05;0.30;;;0.30;;
25187;SDS011;13141;50.414;8.050;2023-06-26T12:25:37;0.20;;;0.20;;
25187;SDS011;13141;50.414;8.050;2023-06-26T12:28:04;0.30;;;0.30;;
25187;SDS011;13141;50.414;8.050;2023-06-26T12:30:40;0.28;;;0.28;;
25187;SDS011;13141;50.414;8.050;2023-06-26T12:33:12;0.22;;;0.22;;
25187;SDS011;13141;50.414;8.050;2023-06-26T12:35:39;0.30;;;0.30;;
25187;SDS011;13141;50.414;8.050;2023-06-26T12:38:06;0.40;;;0.40;;
25187;SDS011;13141;50.414;8.050;2023-06-26T12:40:32;0.40;;;0.40;;
25187;SDS011;13141;50.414;8.050;2023-06-26T12:42:58;0.40;;;0.40;;
25187;SDS011;13141;50.414;8.050;2023-06-26T12:45:25;0.40;;;0.40;;
25187;SDS011;13141;50.414;8.050;2023-06-26T12:47:51;0.37;;;0.37;;
25187;SDS011;13141;50.414;8.050;2023-06-26T12:50:16;0.30;;;0.30;;
25187;SDS011;13141;50.414;8.050;2023-06-26T12:52:42;0.20;;;0.20;;
25187;SDS011;13141;50.414;8.050;2023-06-26T12:55:08;0.30;;;0.30;;
25187;SDS011;13141;50.414;8.050;2023-06-26T12:57:34;0.20;;;0.20;;
25187;SDS011;13141;50.414;8.050;2023-06-26T13:00:00;0.30;;;0.30;;
25187;SDS011;13141;50.414;8.050;2023-06-26T13:02:27;0.30;;;0.30;;
25187;SDS011;13141;50.414;8.050;2023-06-26T13:04:52;0.30;;;0.30;;
25187;SDS011;13141;50.414;8.050;2023-06-26T13:07:18;0.30;;;0.30;;
25187;SDS011;13141;50.414;8.050;2023-06-26T13:09:44;0.37;;;0.37;;
25187;SDS011;13141;50.414;8.050;2023-06-26T13:12:10;0.40;;;0.40;;
25187;SDS011;13141;50.414;8.050;2023-06-26T13:14:36;0.40;;;0.40;;
25187;SDS011;13141;50.414;8.050;2023-06-26T13:17:02;0.35;;;0.35;;
25187;SDS011;13141;50.414;8.050;2023-06-26T13:19:29;0.37;;;0.37;;
25187;SDS011;13141;50.414;8.050;2023-06-26T13:21:54;0.40;;;0.40;;
25187;SDS011;13141;50.414;8.050;2023-06-26T13:24:20;0.25;;;0.25;;
25187;SDS011;13141;50.414;8.050;2023-06-26T13:26:46;0.28;;;0.28;;
25187;SDS011;13141;50.414;8.050;2023-06-26T13:29:14;0.30;;;0.30;;
25187;SDS011;13141;50.414;8.050;2023-06-26T13:31:40;0.30;;;0.30;;
25187;SDS011;13141;50.414;8.050;2023-06-26T13:34:05;0.30;;;0.30;;
25187;SDS011;13141;50.414;8.050;2023-06-26T13:36:33;0.32;;;0.32;;
25187;SDS011;13141;50.414;8.050;2023-06-26T13:38:58;0.40;;;0.40;;
25187;SDS011;13141;50.414;8.050;2023-06-26T13:41:24;0.30;;;0.30;;
25187;SDS011;13141;50.414;8.050;2023-06-26T13:43:50;0.40;;;0.40;;
25187;SDS011;13141;50.414;8.050;2023-06-26T13:46:16;0.30;;;0.30;;
25187;SDS011;13141;50.414;8.050;2023-06-26T13:48:42;0.40;;;0.40;;
25187;SDS011;13141;50.414;8.050;2023-06-26T13:51:07;0.30;;;0.30;;
25187;SDS011;13141;50.414;8.050;2023-06-26T13:53:34;0.30;;;0.30;;
25187;SDS011;13141;50.414;8.050;2023-06-26T13:56:00;0.30;;;0.30;;
25187;SDS011;13141;50.414;8.050;2023-06-26T13:58:26;0.28;;;0.28;;
25187;SDS011;13141;50.414;8.050;2023-06-26T14:00:52;0.20;;;0.20;;
25187;SDS011;13141;50.414;8.050;2023-06-26T14:03:17;0.37;;;0.37;;
25187;SDS011;13141;50.414;8.050;2023-06-26T14:05:43;0.30;;;0.30;;
25187;SDS011;13141;50.414;8.050;2023-06-26T14:08:09;0.30;;;0.30;;
25187;SDS011;13141;50.414;8.050;2023-06-26T14:10:36;0.30;;;0.30;;
25187;SDS011;13141;50.414;8.050;2023-06-26T14:13:02;0.30;;;0.30;;
25187;SDS011;13141;50.414;8.050;2023-06-26T14:15:28;0.30;;;0.30;;
25187;SDS011;13141;50.414;8.050;2023-06-26T14:17:54;0.28;;;0.28;;
25187;SDS011;13141;50.414;8.050;2023-06-26T14:20:19;0.28;;;0.28;;
25187;SDS011;13141;50.414;8.050;2023-06-26T14:22:45;0.22;;;0.22;;
25187;SDS011;13141;50.414;8.050;2023-06-26T14:25:11;0.20;;;0.20;;
25187;SDS011;13141;50.414;8.050;2023-06-26T14:27:38;0.30;;;0.30;;
25187;SDS011;13141;50.414;8.050;2023-06-26T14:30:05;0.40;;;0.40;;
25187;SDS011;13141;50.414;8.050;2023-06-26T14:32:32;0.20;;;0.20;;
25187;SDS011;13141;50.414;8.050;2023-06-26T14:34:58;0.20;;;0.20;;
25187;SDS011;13141;50.414;8.050;2023-06-26T14:37:23;0.30;;;0.30;;
25187;SDS011;13141;50.414;8.050;2023-06-26T14:39:49;0.20;;;0.20;;
25187;SDS011;13141;50.414;8.050;2023-06-26T14:42:15;0.40;;;0.40;;
25187;SDS011;13141;50.414;8.050;2023-06-26T14:44:42;0.30;;;0.30;;
25187;SDS011;13141;50.414;8.050;2023-06-26T14:47:08;0.35;;;0.35;;
25187;SDS011;13141;50.414;8.050;2023-06-26T14:49:33;0.30;;;0.30;;